Time,TemperatureF,DewpointF,PressureIn,WindDirection,WindDirectionDegrees,WindSpeedMPH,WindSpeedGustMPH,Humidity,HourlyPrecipIn,Conditions,Clouds,dailyrainin,SoftwareType,DateUTC
2013-05-07 00:02:00,65.0,47.0,-100.00,WNW,292,22.0,24.0,51,-99.99,,,-99.99,,2013-05-07 07:02:00,
2013-05-07 00:11:00,65.0,48.0,-100.00,WNW,292,24.0,27.0,54,-99.99,,,-99.99,,2013-05-07 07:11:00,
2013-05-07 00:22:00,64.0,47.0,-100.00,WNW,296,23.0,26.0,55,-99.99,,,-99.99,,2013-05-07 07:22:00,
2013-05-07 00:31:00,63.0,48.0,-100.00,WNW,294,24.0,26.0,57,-99.99,,,-99.99,,2013-05-07 07:31:00,
2013-05-07 00:42:00,63.0,48.0,-100.00,WNW,293,24.0,26.0,58,-99.99,,,-99.99,,2013-05-07 07:42:00,
2013-05-07 00:52:00,63.0,49.0,-100.00,WNW,293,25.0,27.0,60,-99.99,,,-99.99,,2013-05-07 07:52:00,
2013-05-07 01:02:00,63.0,49.0,-100.00,WNW,293,25.0,27.0,60,-99.99,,,-99.99,,2013-05-07 08:02:00,
2013-05-07 01:11:00,63.0,49.0,-100.00,WNW,293,25.0,28.0,60,-99.99,,,-99.99,,2013-05-07 08:11:00,
2013-05-07 01:21:00,62.0,48.0,-100.00,WNW,294,26.0,29.0,61,-99.99,,,-99.99,,2013-05-07 08:21:00,
2013-05-07 01:31:00,61.0,48.0,-100.00,WNW,294,26.0,29.0,62,-99.99,,,-99.99,,2013-05-07 08:31:00,
2013-05-07 01:41:00,61.0,49.0,-100.00,WNW,295,27.0,30.0,63,-99.99,,,-99.99,,2013-05-07 08:41:00,
2013-05-07 01:52:00,61.0,48.0,-100.00,WNW,293,29.0,32.0,63,-99.99,,,-99.99,,2013-05-07 08:52:00,
2013-05-07 02:01:00,60.0,48.0,-100.00,WNW,292,29.0,32.0,64,-99.99,,,-99.99,,2013-05-07 09:01:00,
2013-05-07 02:11:00,60.0,48.0,-100.00,WNW,292,27.0,32.0,64,-99.99,,,-99.99,,2013-05-07 09:11:00,
2013-05-07 02:22:00,60.0,48.0,-100.00,WNW,289,30.0,34.0,65,-99.99,,,-99.99,,2013-05-07 09:22:00,
2013-05-07 02:33:00,60.0,48.0,-100.00,WNW,290,31.0,35.0,65,-99.99,,,-99.99,,2013-05-07 09:33:00,
2013-05-07 02:42:00,59.0,48.0,-100.00,WNW,286,31.0,36.0,66,-99.99,,,-99.99,,2013-05-07 09:42:00,
2013-05-07 02:52:00,59.0,48.0,-100.00,WNW,287,32.0,36.0,67,-99.99,,,-99.99,,2013-05-07 09:52:00,
2013-05-07 03:02:00,58.0,48.0,-100.00,WNW,286,31.0,35.0,68,-99.99,,,-99.99,,2013-05-07 10:02:00,
2013-05-07 03:12:00,58.0,48.0,-100.00,WNW,285,32.0,38.0,68,-99.99,,,-99.99,,2013-05-07 10:12:00,
2013-05-07 03:22:00,58.0,48.0,-100.00,WNW,287,34.0,37.0,69,-99.99,,,-99.99,,2013-05-07 10:22:00,
2013-05-07 03:32:00,58.0,48.0,-100.00,WNW,287,34.0,38.0,69,-99.99,,,-99.99,,2013-05-07 10:32:00,
2013-05-07 03:42:00,57.0,48.0,-100.00,WNW,290,35.0,38.0,70,-99.99,,,-99.99,,2013-05-07 10:42:00,
2013-05-07 03:52:00,57.0,48.0,-100.00,WNW,292,35.0,39.0,70,-99.99,,,-99.99,,2013-05-07 10:52:00,
2013-05-07 04:02:00,57.0,48.0,-100.00,WNW,292,35.0,39.0,70,-99.99,,,-99.99,,2013-05-07 11:02:00,
2013-05-07 04:12:00,56.0,47.0,-100.00,WNW,289,35.0,40.0,71,-99.99,,,-99.99,,2013-05-07 11:12:00,
2013-05-07 04:22:00,56.0,47.0,-100.00,WNW,289,35.0,42.0,71,-99.99,,,-99.99,,2013-05-07 11:22:00,
2013-05-07 04:32:00,56.0,47.0,-100.00,WNW,289,35.0,42.0,71,-99.99,,,-99.99,,2013-05-07 11:32:00,
2013-05-07 04:42:00,56.0,47.0,-100.00,WNW,289,36.0,42.0,71,-99.99,,,-99.99,,2013-05-07 11:42:00,
2013-05-07 04:51:00,56.0,46.0,-100.00,WNW,288,33.0,39.0,71,-99.99,,,-99.99,,2013-05-07 11:51:00,
2013-05-07 05:01:00,55.0,46.0,-100.00,WNW,287,35.0,41.0,71,-99.99,,,-99.99,,2013-05-07 12:01:00,
2013-05-07 05:11:00,55.0,46.0,-100.00,WNW,290,35.0,40.0,72,-99.99,,,-99.99,,2013-05-07 12:11:00,
2013-05-07 05:21:00,55.0,46.0,-100.00,WNW,287,34.0,41.0,72,-99.99,,,-99.99,,2013-05-07 12:21:00,
2013-05-07 05:32:00,55.0,46.0,-100.00,WNW,289,32.0,37.0,72,-99.99,,,-99.99,,2013-05-07 12:32:00,
2013-05-07 05:41:00,55.0,46.0,-100.00,WNW,292,35.0,40.0,72,-99.99,,,-99.99,,2013-05-07 12:41:00,
2013-05-07 05:52:00,54.0,46.0,-100.00,WNW,294,37.0,41.0,73,-99.99,,,-99.99,,2013-05-07 12:52:00,
2013-05-07 06:02:00,54.0,46.0,-100.00,WNW,294,37.0,41.0,73,-99.99,,,-99.99,,2013-05-07 13:02:00,
2013-05-07 06:11:00,54.0,46.0,-100.00,WNW,292,38.0,44.0,73,-99.99,,,-99.99,,2013-05-07 13:11:00,
2013-05-07 06:21:00,54.0,46.0,-100.00,WNW,291,39.0,43.0,74,-99.99,,,-99.99,,2013-05-07 13:21:00,
2013-05-07 06:32:00,53.0,46.0,-100.00,WNW,291,40.0,45.0,75,-99.99,,,-99.99,,2013-05-07 13:32:00,
2013-05-07 06:42:00,53.0,45.0,-100.00,WNW,290,38.0,43.0,74,-99.99,,,-99.99,,2013-05-07 13:42:00,
2013-05-07 06:52:00,53.0,46.0,-100.00,WNW,292,36.0,42.0,74,-99.99,,,-99.99,,2013-05-07 13:52:00,
2013-05-07 07:02:00,54.0,45.0,-100.00,WNW,294,39.0,43.0,73,-99.99,,,-99.99,,2013-05-07 14:02:00,
2013-05-07 07:11:00,54.0,45.0,-100.00,WNW,294,38.0,44.0,71,-99.99,,,-99.99,,2013-05-07 14:11:00,
2013-05-07 07:21:00,54.0,45.0,-100.00,WNW,297,37.0,41.0,71,-99.99,,,-99.99,,2013-05-07 14:21:00,
2013-05-07 07:31:00,54.0,45.0,-100.00,WNW,295,36.0,42.0,70,-99.99,,,-99.99,,2013-05-07 14:31:00,
2013-05-07 07:42:00,54.0,45.0,-100.00,WNW,294,33.0,38.0,70,-99.99,,,-99.99,,2013-05-07 14:42:00,
2013-05-07 07:52:00,54.0,45.0,-100.00,WNW,295,33.0,38.0,70,-99.99,,,-99.99,,2013-05-07 14:52:00,
2013-05-07 08:01:00,55.0,45.0,-100.00,WNW,292,33.0,39.0,69,-99.99,,,-99.99,,2013-05-07 15:01:00,
2013-05-07 08:12:00,55.0,45.0,-100.00,WNW,289,34.0,39.0,69,-99.99,,,-99.99,,2013-05-07 15:12:00,
2013-05-07 08:21:00,55.0,45.0,-100.00,WNW,294,32.0,39.0,70,-99.99,,,-99.99,,2013-05-07 15:21:00,
2013-05-07 08:33:00,55.0,45.0,-100.00,WNW,296,30.0,37.0,70,-99.99,,,-99.99,,2013-05-07 15:33:00,
2013-05-07 08:42:00,55.0,45.0,-100.00,WNW,291,31.0,37.0,69,-99.99,,,-99.99,,2013-05-07 15:42:00,
2013-05-07 08:53:00,56.0,45.0,-100.00,WNW,294,30.0,34.0,68,-99.99,,,-99.99,,2013-05-07 15:53:00,
2013-05-07 09:03:00,56.0,45.0,-100.00,WNW,294,30.0,34.0,68,-99.99,,,-99.99,,2013-05-07 16:03:00,
2013-05-07 11:31:00,63.0,45.0,-100.00,West,281,30.0,37.0,51,-99.99,,,-99.99,,2013-05-07 18:31:00,
2013-05-07 11:41:00,64.0,45.0,-100.00,WNW,283,26.0,34.0,50,-99.99,,,-99.99,,2013-05-07 18:41:00,
2013-05-07 11:51:00,64.0,45.0,-100.00,WNW,285,29.0,35.0,49,-99.99,,,-99.99,,2013-05-07 18:51:00,
2013-05-07 12:02:00,65.0,45.0,-100.00,West,281,26.0,31.0,49,-99.99,,,-99.99,,2013-05-07 19:02:00,
2013-05-07 12:11:00,66.0,45.0,-100.00,West,273,27.0,33.0,47,-99.99,,,-99.99,,2013-05-07 19:11:00,
2013-05-07 12:21:00,66.0,45.0,-100.00,WNW,282,26.0,33.0,46,-99.99,,,-99.99,,2013-05-07 19:21:00,
2013-05-07 12:32:00,67.0,45.0,-100.00,West,276,25.0,30.0,45,-99.99,,,-99.99,,2013-05-07 19:32:00,
2013-05-07 12:42:00,67.0,45.0,-100.00,West,276,25.0,30.0,45,-99.99,,,-99.99,,2013-05-07 19:42:00,
2013-05-07 12:52:00,67.0,45.0,-100.00,WNW,282,26.0,30.0,45,-99.99,,,-99.99,,2013-05-07 19:52:00,
2013-05-07 13:02:00,68.0,45.0,-100.00,West,281,25.0,29.0,44,-99.99,,,-99.99,,2013-05-07 20:02:00,
2013-05-07 13:11:00,68.0,45.0,-100.00,WNW,290,23.0,29.0,44,-99.99,,,-99.99,,2013-05-07 20:11:00,
2013-05-07 13:21:00,68.0,45.0,-100.00,WNW,287,24.0,27.0,44,-99.99,,,-99.99,,2013-05-07 20:21:00,
2013-05-07 13:32:00,68.0,45.0,-100.00,West,280,22.0,27.0,43,-99.99,,,-99.99,,2013-05-07 20:32:00,
2013-05-07 13:41:00,68.0,45.0,-100.00,WNW,283,25.0,29.0,42,-99.99,,,-99.99,,2013-05-07 20:41:00,
2013-05-07 13:51:00,70.0,46.0,-100.00,WNW,287,24.0,28.0,42,-99.99,,,-99.99,,2013-05-07 20:51:00,
2013-05-07 14:01:00,70.0,46.0,-100.00,WNW,287,23.0,27.0,42,-99.99,,,-99.99,,2013-05-07 21:01:00,
2013-05-07 14:11:00,70.0,46.0,-100.00,West,280,23.0,28.0,41,-99.99,,,-99.99,,2013-05-07 21:11:00,
2013-05-07 14:21:00,70.0,46.0,-100.00,WNW,282,23.0,28.0,40,-99.99,,,-99.99,,2013-05-07 21:21:00,
2013-05-07 14:32:00,71.0,45.0,-100.00,West,271,24.0,28.0,39,-99.99,,,-99.99,,2013-05-07 21:32:00,
2013-05-07 14:42:00,71.0,46.0,-100.00,WNW,287,23.0,28.0,40,-99.99,,,-99.99,,2013-05-07 21:42:00,
2013-05-07 14:52:00,71.0,45.0,-100.00,West,274,23.0,28.0,39,-99.99,,,-99.99,,2013-05-07 21:52:00,
2013-05-07 15:02:00,71.0,46.0,-100.00,WNW,284,23.0,27.0,40,-99.99,,,-99.99,,2013-05-07 22:02:00,
2013-05-07 15:13:00,71.0,45.0,-100.00,WNW,288,22.0,28.0,39,-99.99,,,-99.99,,2013-05-07 22:13:00,
2013-05-07 15:22:00,72.0,45.0,-100.00,WNW,284,22.0,29.0,38,-99.99,,,-99.99,,2013-05-07 22:22:00,
2013-05-07 15:32:00,72.0,46.0,-100.00,WNW,285,22.0,27.0,39,-99.99,,,-99.99,,2013-05-07 22:32:00,
2013-05-07 15:42:00,73.0,46.0,-100.00,West,278,24.0,33.0,38,-99.99,,,-99.99,,2013-05-07 22:42:00,
2013-05-07 15:52:00,73.0,46.0,-100.00,West,279,24.0,34.0,38,-99.99,,,-99.99,,2013-05-07 22:52:00,
2013-05-07 16:02:00,73.0,46.0,-100.00,WNW,287,25.0,29.0,38,-99.99,,,-99.99,,2013-05-07 23:02:00,
2013-05-07 16:12:00,73.0,47.0,-100.00,WNW,282,21.0,21.0,39,-99.99,,,-99.99,,2013-05-07 23:12:00,
2013-05-07 16:21:00,73.0,47.0,-100.00,WNW,282,21.0,21.0,39,-99.99,,,-99.99,,2013-05-07 23:21:00,
2013-05-07 16:32:00,73.0,47.0,-100.00,WNW,282,21.0,21.0,39,-99.99,,,-99.99,,2013-05-07 23:32:00,
2013-05-07 16:41:00,73.0,47.0,-100.00,WNW,282,21.0,21.0,39,-99.99,,,-99.99,,2013-05-07 23:41:00,
2013-05-07 16:52:00,73.0,47.0,-100.00,WNW,282,21.0,21.0,39,-99.99,,,-99.99,,2013-05-07 23:52:00,
2013-05-07 17:01:00,73.0,47.0,-100.00,WNW,282,21.0,21.0,39,-99.99,,,-99.99,,2013-05-08 00:01:00,
2013-05-07 17:11:00,73.0,47.0,-100.00,WNW,282,21.0,21.0,39,-99.99,,,-99.99,,2013-05-08 00:11:00,
2013-05-07 17:21:00,73.0,47.0,-100.00,WNW,282,21.0,21.0,39,-99.99,,,-99.99,,2013-05-08 00:21:00,
2013-05-07 17:32:00,73.0,47.0,-100.00,WNW,282,21.0,21.0,39,-99.99,,,-99.99,,2013-05-08 00:32:00,
2013-05-07 17:42:00,73.0,47.0,-100.00,WNW,282,21.0,21.0,39,-99.99,,,-99.99,,2013-05-08 00:42:00,
2013-05-07 17:51:00,73.0,47.0,-100.00,WNW,282,21.0,21.0,39,-99.99,,,-99.99,,2013-05-08 00:51:00,
2013-05-07 18:02:00,73.0,47.0,-100.00,WNW,282,21.0,21.0,39,-99.99,,,-99.99,,2013-05-08 01:02:00,
2013-05-07 18:11:00,73.0,47.0,-100.00,WNW,282,21.0,21.0,39,-99.99,,,-99.99,,2013-05-08 01:11:00,
2013-05-07 18:21:00,73.0,47.0,-100.00,WNW,282,21.0,21.0,39,-99.99,,,-99.99,,2013-05-08 01:21:00,
2013-05-07 18:31:00,73.0,47.0,-100.00,WNW,282,21.0,21.0,39,-99.99,,,-99.99,,2013-05-08 01:31:00,
2013-05-07 18:42:00,73.0,47.0,-100.00,WNW,282,21.0,21.0,39,-99.99,,,-99.99,,2013-05-08 01:42:00,
2013-05-07 18:52:00,73.0,47.0,-100.00,WNW,282,21.0,21.0,39,-99.99,,,-99.99,,2013-05-08 01:52:00,
2013-05-07 19:01:00,73.0,47.0,-100.00,WNW,282,21.0,21.0,39,-99.99,,,-99.99,,2013-05-08 02:01:00,
2013-05-07 19:12:00,73.0,47.0,-100.00,WNW,282,21.0,21.0,39,-99.99,,,-99.99,,2013-05-08 02:12:00,
2013-05-07 19:22:00,73.0,47.0,-100.00,WNW,282,21.0,21.0,39,-99.99,,,-99.99,,2013-05-08 02:22:00,
2013-05-07 19:31:00,73.0,47.0,-100.00,WNW,282,21.0,21.0,39,-99.99,,,-99.99,,2013-05-08 02:31:00,
2013-05-07 19:42:00,73.0,47.0,-100.00,WNW,282,21.0,21.0,39,-99.99,,,-99.99,,2013-05-08 02:42:00,
2013-05-07 19:52:00,73.0,47.0,-100.00,WNW,282,21.0,21.0,39,-99.99,,,-99.99,,2013-05-08 02:52:00,
2013-05-07 20:01:00,73.0,47.0,-100.00,WNW,282,21.0,21.0,39,-99.99,,,-99.99,,2013-05-08 03:01:00,
2013-05-07 20:11:00,73.0,47.0,-100.00,WNW,282,21.0,21.0,39,-99.99,,,-99.99,,2013-05-08 03:11:00,
2013-05-07 20:21:00,73.0,47.0,-100.00,WNW,282,21.0,21.0,39,-99.99,,,-99.99,,2013-05-08 03:21:00,
2013-05-07 20:32:00,73.0,47.0,-100.00,WNW,282,21.0,21.0,39,-99.99,,,-99.99,,2013-05-08 03:32:00,
2013-05-07 20:43:00,73.0,47.0,-100.00,WNW,282,21.0,21.0,39,-99.99,,,-99.99,,2013-05-08 03:43:00,
2013-05-07 20:52:00,73.0,47.0,-100.00,WNW,282,21.0,21.0,39,-99.99,,,-99.99,,2013-05-08 03:52:00,
2013-05-07 21:02:00,73.0,47.0,-100.00,WNW,282,21.0,21.0,39,-99.99,,,-99.99,,2013-05-08 04:02:00,
2013-05-07 21:12:00,73.0,47.0,-100.00,WNW,282,21.0,21.0,39,-99.99,,,-99.99,,2013-05-08 04:12:00,
2013-05-07 21:22:00,73.0,47.0,-100.00,WNW,282,21.0,21.0,39,-99.99,,,-99.99,,2013-05-08 04:22:00,
2013-05-07 21:33:00,73.0,47.0,-100.00,WNW,282,21.0,21.0,39,-99.99,,,-99.99,,2013-05-08 04:33:00,
2013-05-07 21:42:00,73.0,47.0,-100.00,WNW,282,21.0,21.0,39,-99.99,,,-99.99,,2013-05-08 04:42:00,
2013-05-07 21:52:00,73.0,47.0,-100.00,WNW,282,21.0,21.0,39,-99.99,,,-99.99,,2013-05-08 04:52:00,
2013-05-07 22:02:00,73.0,47.0,-100.00,WNW,282,21.0,21.0,39,-99.99,,,-99.99,,2013-05-08 05:02:00,
2013-05-07 22:12:00,73.0,47.0,-100.00,WNW,282,21.0,21.0,39,-99.99,,,-99.99,,2013-05-08 05:12:00,
2013-05-07 22:22:00,73.0,47.0,-100.00,WNW,282,21.0,21.0,39,-99.99,,,-99.99,,2013-05-08 05:22:00,
2013-05-07 22:42:00,73.0,47.0,-100.00,WNW,282,21.0,21.0,39,-99.99,,,-99.99,,2013-05-08 05:42:00,
2013-05-07 22:52:00,73.0,47.0,-100.00,WNW,282,21.0,21.0,39,-99.99,,,-99.99,,2013-05-08 05:52:00,
2013-05-07 23:01:00,73.0,47.0,-100.00,WNW,282,21.0,21.0,39,-99.99,,,-99.99,,2013-05-08 06:01:00,
2013-05-07 23:12:00,73.0,47.0,-100.00,WNW,282,21.0,21.0,39,-99.99,,,-99.99,,2013-05-08 06:12:00,
2013-05-07 23:21:00,73.0,47.0,-100.00,WNW,282,21.0,21.0,39,-99.99,,,-99.99,,2013-05-08 06:21:00,
2013-05-07 23:32:00,73.0,47.0,-100.00,WNW,282,21.0,21.0,39,-99.99,,,-99.99,,2013-05-08 06:32:00,
2013-05-07 23:41:00,73.0,47.0,-100.00,WNW,282,21.0,21.0,39,-99.99,,,-99.99,,2013-05-08 06:41:00,
2013-05-07 23:52:00,73.0,47.0,-100.00,WNW,282,21.0,21.0,39,-99.99,,,-99.99,,2013-05-08 06:52:00,